Weather at Lebanon Municipal Airport

Public forecast

Using degrees Fahrenheit for public forecast. Weather courtesy of forecast.io.

Current aviation weather report (METAR) for Lebanon Municipal Airport

2022/11/30 17:05 (retrieved 17 minutes ago)

KM54 301705Z AUTO 33010G17KT 10SM CLR 06/M04 A3025 RMK A01

Closest aviation forecast (TAF) to Lebanon Municipal Airport

Closest forecast is Smyrna Airport, 14.7 nm (27.3 km) SW.

2022/11/30 14:09 Ammendment (retrieved 3 hours ago)

TAF AMD KMQY 301407Z 3014/0112 33011G20KT P6SM SKC FM010000 34003KT P6SM SKC